sensor_id;sensor_type;location;lat;lon;timestamp;P1;durP1;ratioP1;P2;durP2;ratioP2
29302;SDS011;60019;45.556;12.004;2023-08-08T00:00:59;4.38;;;1.92;;
29302;SDS011;60019;45.556;12.004;2023-08-08T00:07:00;2.47;;;1.63;;
29302;SDS011;60019;45.556;12.004;2023-08-08T00:13:02;1.45;;;1.33;;
29302;SDS011;60019;45.556;12.004;2023-08-08T00:19:04;2.03;;;1.70;;
29302;SDS011;60019;45.556;12.004;2023-08-08T00:25:06;2.88;;;1.20;;
29302;SDS011;60019;45.556;12.004;2023-08-08T00:31:09;2.10;;;1.55;;
29302;SDS011;60019;45.556;12.004;2023-08-08T00:37:13;2.10;;;1.30;;
29302;SDS011;60019;45.556;12.004;2023-08-08T00:43:14;1.48;;;1.15;;
29302;SDS011;60019;45.556;12.004;2023-08-08T00:49:16;1.20;;;1.10;;
29302;SDS011;60019;45.556;12.004;2023-08-08T00:55:18;1.65;;;1.10;;
29302;SDS011;60019;45.556;12.004;2023-08-08T01:01:20;1.10;;;0.98;;
29302;SDS011;60019;45.556;12.004;2023-08-08T01:13:43;1.10;;;0.95;;
29302;SDS011;60019;45.556;12.004;2023-08-08T01:19:49;2.25;;;0.90;;
29302;SDS011;60019;45.556;12.004;2023-08-08T01:25:51;1.65;;;0.88;;
29302;SDS011;60019;45.556;12.004;2023-08-08T01:31:53;2.25;;;1.45;;
29302;SDS011;60019;45.556;12.004;2023-08-08T01:37:58;1.58;;;1.10;;
29302;SDS011;60019;45.556;12.004;2023-08-08T01:44:02;1.23;;;1.13;;
29302;SDS011;60019;45.556;12.004;2023-08-08T01:50:04;1.65;;;1.08;;
29302;SDS011;60019;45.556;12.004;2023-08-08T01:56:06;1.58;;;0.90;;
29302;SDS011;60019;45.556;12.004;2023-08-08T02:02:09;1.15;;;0.82;;
29302;SDS011;60019;45.556;12.004;2023-08-08T02:08:10;0.85;;;0.82;;
29302;SDS011;60019;45.556;12.004;2023-08-08T02:14:13;0.80;;;0.80;;
29302;SDS011;60019;45.556;12.004;2023-08-08T02:20:15;1.10;;;1.00;;
29302;SDS011;60019;45.556;12.004;2023-08-08T02:26:17;0.82;;;0.77;;
29302;SDS011;60019;45.556;12.004;2023-08-08T02:32:18;1.15;;;1.00;;
29302;SDS011;60019;45.556;12.004;2023-08-08T02:38:20;1.15;;;0.98;;
29302;SDS011;60019;45.556;12.004;2023-08-08T02:44:22;1.75;;;1.30;;
29302;SDS011;60019;45.556;12.004;2023-08-08T02:50:24;1.52;;;1.15;;
29302;SDS011;60019;45.556;12.004;2023-08-08T02:56:26;1.02;;;0.95;;
29302;SDS011;60019;45.556;12.004;2023-08-08T03:02:28;2.55;;;1.23;;
29302;SDS011;60019;45.556;12.004;2023-08-08T03:08:31;1.08;;;0.98;;
29302;SDS011;60019;45.556;12.004;2023-08-08T03:14:34;1.02;;;0.98;;
29302;SDS011;60019;45.556;12.004;2023-08-08T03:20:37;0.80;;;0.80;;
29302;SDS011;60019;45.556;12.004;2023-08-08T03:26:42;1.55;;;0.85;;
29302;SDS011;60019;45.556;12.004;2023-08-08T03:32:43;1.10;;;0.80;;
29302;SDS011;60019;45.556;12.004;2023-08-08T03:38:45;1.33;;;0.80;;
29302;SDS011;60019;45.556;12.004;2023-08-08T03:44:48;1.92;;;0.82;;
29302;SDS011;60019;45.556;12.004;2023-08-08T03:50:50;0.80;;;0.80;;
29302;SDS011;60019;45.556;12.004;2023-08-08T03:56:53;1.33;;;1.00;;
29302;SDS011;60019;45.556;12.004;2023-08-08T04:02:56;0.80;;;0.80;;
29302;SDS011;60019;45.556;12.004;2023-08-08T04:08:58;0.90;;;0.90;;
29302;SDS011;60019;45.556;12.004;2023-08-08T04:15:01;1.38;;;0.80;;
29302;SDS011;60019;45.556;12.004;2023-08-08T04:21:03;1.42;;;1.05;;
29302;SDS011;60019;45.556;12.004;2023-08-08T04:27:05;1.17;;;1.08;;
29302;SDS011;60019;45.556;12.004;2023-08-08T04:33:07;1.17;;;0.90;;
29302;SDS011;60019;45.556;12.004;2023-08-08T04:39:08;3.00;;;1.20;;
29302;SDS011;60019;45.556;12.004;2023-08-08T04:45:10;1.17;;;1.02;;
29302;SDS011;60019;45.556;12.004;2023-08-08T04:51:13;1.13;;;1.00;;
29302;SDS011;60019;45.556;12.004;2023-08-08T04:57:15;1.50;;;1.40;;
29302;SDS011;60019;45.556;12.004;2023-08-08T05:03:17;3.20;;;1.25;;
29302;SDS011;60019;45.556;12.004;2023-08-08T05:09:19;1.10;;;1.00;;
29302;SDS011;60019;45.556;12.004;2023-08-08T05:15:21;1.98;;;1.25;;
29302;SDS011;60019;45.556;12.004;2023-08-08T05:21:23;4.65;;;2.67;;
29302;SDS011;60019;45.556;12.004;2023-08-08T05:27:25;1.50;;;1.40;;
29302;SDS011;60019;45.556;12.004;2023-08-08T05:39:29;2.00;;;1.00;;
29302;SDS011;60019;45.556;12.004;2023-08-08T05:45:31;1.17;;;1.00;;
29302;SDS011;60019;45.556;12.004;2023-08-08T05:51:33;5.25;;;1.30;;
29302;SDS011;60019;45.556;12.004;2023-08-08T05:57:35;11.05;;;2.13;;
29302;SDS011;60019;45.556;12.004;2023-08-08T06:03:38;4.82;;;1.13;;
29302;SDS011;60019;45.556;12.004;2023-08-08T06:09:40;3.80;;;1.48;;
29302;SDS011;60019;45.556;12.004;2023-08-08T06:15:41;9.55;;;1.33;;
29302;SDS011;60019;45.556;12.004;2023-08-08T06:21:43;5.20;;;1.15;;
29302;SDS011;60019;45.556;12.004;2023-08-08T06:27:45;2.22;;;1.20;;
29302;SDS011;60019;45.556;12.004;2023-08-08T06:33:47;3.53;;;1.33;;
29302;SDS011;60019;45.556;12.004;2023-08-08T06:39:49;4.18;;;1.10;;
29302;SDS011;60019;45.556;12.004;2023-08-08T06:45:51;1.58;;;1.30;;
29302;SDS011;60019;45.556;12.004;2023-08-08T06:51:53;2.40;;;1.10;;
29302;SDS011;60019;45.556;12.004;2023-08-08T06:57:54;1.92;;;0.90;;
29302;SDS011;60019;45.556;12.004;2023-08-08T07:03:56;2.00;;;1.33;;
29302;SDS011;60019;45.556;12.004;2023-08-08T07:09:58;5.00;;;1.60;;
29302;SDS011;60019;45.556;12.004;2023-08-08T07:16:00;2.83;;;1.40;;
29302;SDS011;60019;45.556;12.004;2023-08-08T07:22:02;4.40;;;1.20;;
29302;SDS011;60019;45.556;12.004;2023-08-08T07:28:03;5.78;;;1.30;;
29302;SDS011;60019;45.556;12.004;2023-08-08T07:34:05;4.32;;;1.45;;
29302;SDS011;60019;45.556;12.004;2023-08-08T07:40:17;1.13;;;1.00;;
29302;SDS011;60019;45.556;12.004;2023-08-08T07:46:18;1.20;;;1.10;;
29302;SDS011;60019;45.556;12.004;2023-08-08T07:52:20;1.40;;;1.00;;
29302;SDS011;60019;45.556;12.004;2023-08-08T07:58:22;4.35;;;1.25;;
29302;SDS011;60019;45.556;12.004;2023-08-08T08:04:26;10.00;;;1.80;;
29302;SDS011;60019;45.556;12.004;2023-08-08T08:10:28;2.22;;;1.20;;
29302;SDS011;60019;45.556;12.004;2023-08-08T08:16:30;6.45;;;2.45;;
29302;SDS011;60019;45.556;12.004;2023-08-08T08:22:32;25.70;;;4.22;;
29302;SDS011;60019;45.556;12.004;2023-08-08T08:28:33;35.15;;;5.32;;
29302;SDS011;60019;45.556;12.004;2023-08-08T08:34:35;6.72;;;2.53;;
29302;SDS011;60019;45.556;12.004;2023-08-08T08:40:38;9.65;;;1.52;;
29302;SDS011;60019;45.556;12.004;2023-08-08T08:46:40;6.57;;;1.45;;
29302;SDS011;60019;45.556;12.004;2023-08-08T08:52:42;7.68;;;1.20;;
29302;SDS011;60019;45.556;12.004;2023-08-08T08:58:44;1.55;;;1.38;;
29302;SDS011;60019;45.556;12.004;2023-08-08T09:04:46;1.98;;;1.13;;
29302;SDS011;60019;45.556;12.004;2023-08-08T09:10:48;1.85;;;1.05;;
29302;SDS011;60019;45.556;12.004;2023-08-08T09:16:52;2.33;;;1.20;;
29302;SDS011;60019;45.556;12.004;2023-08-08T09:22:53;3.95;;;1.48;;
29302;SDS011;60019;45.556;12.004;2023-08-08T09:28:56;49.03;;;6.47;;
29302;SDS011;60019;45.556;12.004;2023-08-08T09:34:58;10.43;;;3.65;;
29302;SDS011;60019;45.556;12.004;2023-08-08T09:41:00;4.43;;;1.95;;
29302;SDS011;60019;45.556;12.004;2023-08-08T09:47:01;5.57;;;1.85;;
29302;SDS011;60019;45.556;12.004;2023-08-08T09:53:03;4.57;;;1.77;;
29302;SDS011;60019;45.556;12.004;2023-08-08T09:59:06;4.45;;;1.80;;
29302;SDS011;60019;45.556;12.004;2023-08-08T10:05:09;4.95;;;1.50;;
29302;SDS011;60019;45.556;12.004;2023-08-08T10:11:13;3.05;;;1.40;;
29302;SDS011;60019;45.556;12.004;2023-08-08T10:17:15;1.00;;;0.90;;
29302;SDS011;60019;45.556;12.004;2023-08-08T10:23:17;2.60;;;1.30;;
29302;SDS011;60019;45.556;12.004;2023-08-08T10:29:19;3.75;;;1.35;;
29302;SDS011;60019;45.556;12.004;2023-08-08T10:35:21;2.72;;;1.30;;
29302;SDS011;60019;45.556;12.004;2023-08-08T10:41:26;2.45;;;1.17;;
29302;SDS011;60019;45.556;12.004;2023-08-08T10:47:34;7.78;;;1.98;;
29302;SDS011;60019;45.556;12.004;2023-08-08T10:59:38;2.55;;;1.50;;
29302;SDS011;60019;45.556;12.004;2023-08-08T11:05:40;1.75;;;1.10;;
29302;SDS011;60019;45.556;12.004;2023-08-08T11:11:45;1.38;;;1.20;;
29302;SDS011;60019;45.556;12.004;2023-08-08T11:17:48;4.72;;;1.20;;
29302;SDS011;60019;45.556;12.004;2023-08-08T11:23:49;2.13;;;1.30;;
29302;SDS011;60019;45.556;12.004;2023-08-08T11:29:51;3.85;;;1.45;;
29302;SDS011;60019;45.556;12.004;2023-08-08T11:35:53;2.83;;;1.20;;
29302;SDS011;60019;45.556;12.004;2023-08-08T11:41:55;7.70;;;1.48;;
29302;SDS011;60019;45.556;12.004;2023-08-08T11:47:57;4.03;;;1.40;;
29302;SDS011;60019;45.556;12.004;2023-08-08T11:53:59;4.75;;;1.65;;
29302;SDS011;60019;45.556;12.004;2023-08-08T12:00:02;1.80;;;1.00;;
29302;SDS011;60019;45.556;12.004;2023-08-08T12:06:14;2.05;;;1.30;;
29302;SDS011;60019;45.556;12.004;2023-08-08T12:12:16;4.47;;;1.70;;
29302;SDS011;60019;45.556;12.004;2023-08-08T12:18:18;1.63;;;1.25;;
29302;SDS011;60019;45.556;12.004;2023-08-08T12:24:21;1.52;;;1.20;;
29302;SDS011;60019;45.556;12.004;2023-08-08T12:30:23;1.85;;;1.10;;
29302;SDS011;60019;45.556;12.004;2023-08-08T12:36:25;2.38;;;1.20;;
29302;SDS011;60019;45.556;12.004;2023-08-08T12:42:27;3.45;;;1.60;;
29302;SDS011;60019;45.556;12.004;2023-08-08T12:48:28;6.30;;;1.58;;
29302;SDS011;60019;45.556;12.004;2023-08-08T12:54:30;3.67;;;1.33;;
29302;SDS011;60019;45.556;12.004;2023-08-08T13:00:32;1.42;;;1.20;;
29302;SDS011;60019;45.556;12.004;2023-08-08T13:06:34;1.23;;;1.02;;
29302;SDS011;60019;45.556;12.004;2023-08-08T13:12:36;12.82;;;5.57;;
29302;SDS011;60019;45.556;12.004;2023-08-08T13:18:38;9.88;;;5.93;;
29302;SDS011;60019;45.556;12.004;2023-08-08T13:24:39;9.50;;;5.10;;
29302;SDS011;60019;45.556;12.004;2023-08-08T13:30:41;11.27;;;6.05;;
29302;SDS011;60019;45.556;12.004;2023-08-08T13:36:43;11.32;;;6.70;;
29302;SDS011;60019;45.556;12.004;2023-08-08T13:42:45;9.57;;;5.97;;
29302;SDS011;60019;45.556;12.004;2023-08-08T13:48:48;8.95;;;5.43;;
29302;SDS011;60019;45.556;12.004;2023-08-08T13:54:50;9.82;;;4.85;;
29302;SDS011;60019;45.556;12.004;2023-08-08T14:00:52;9.93;;;4.82;;
29302;SDS011;60019;45.556;12.004;2023-08-08T14:06:54;7.03;;;4.30;;
29302;SDS011;60019;45.556;12.004;2023-08-08T14:12:55;5.80;;;3.85;;
29302;SDS011;60019;45.556;12.004;2023-08-08T14:18:57;6.60;;;4.03;;
29302;SDS011;60019;45.556;12.004;2023-08-08T14:24:59;4.68;;;2.92;;
29302;SDS011;60019;45.556;12.004;2023-08-08T14:31:01;6.03;;;3.47;;
29302;SDS011;60019;45.556;12.004;2023-08-08T14:37:03;5.22;;;2.88;;
29302;SDS011;60019;45.556;12.004;2023-08-08T14:43:05;7.70;;;2.60;;
29302;SDS011;60019;45.556;12.004;2023-08-08T14:49:10;6.38;;;2.95;;
29302;SDS011;60019;45.556;12.004;2023-08-08T14:55:12;3.25;;;2.30;;
29302;SDS011;60019;45.556;12.004;2023-08-08T15:01:14;3.58;;;2.67;;
29302;SDS011;60019;45.556;12.004;2023-08-08T15:07:16;3.42;;;2.17;;
29302;SDS011;60019;45.556;12.004;2023-08-08T15:13:18;4.05;;;2.25;;
29302;SDS011;60019;45.556;12.004;2023-08-08T15:19:20;3.00;;;2.03;;
29302;SDS011;60019;45.556;12.004;2023-08-08T15:25:22;1.80;;;1.60;;
29302;SDS011;60019;45.556;12.004;2023-08-08T15:31:23;2.05;;;1.85;;
29302;SDS011;60019;45.556;12.004;2023-08-08T15:37:25;2.25;;;1.83;;
29302;SDS011;60019;45.556;12.004;2023-08-08T15:43:27;2.08;;;1.65;;
29302;SDS011;60019;45.556;12.004;2023-08-08T15:49:29;1.90;;;1.60;;
29302;SDS011;60019;45.556;12.004;2023-08-08T15:55:31;1.83;;;1.40;;
29302;SDS011;60019;45.556;12.004;2023-08-08T16:01:33;1.48;;;1.15;;
29302;SDS011;60019;45.556;12.004;2023-08-08T16:07:36;3.67;;;2.67;;
29302;SDS011;60019;45.556;12.004;2023-08-08T16:13:38;10.55;;;4.80;;
29302;SDS011;60019;45.556;12.004;2023-08-08T16:19:40;4.88;;;2.55;;
29302;SDS011;60019;45.556;12.004;2023-08-08T16:25:42;14.38;;;4.75;;
29302;SDS011;60019;45.556;12.004;2023-08-08T16:31:43;13.07;;;9.80;;
29302;SDS011;60019;45.556;12.004;2023-08-08T16:37:46;31.85;;;22.75;;
29302;SDS011;60019;45.556;12.004;2023-08-08T16:43:52;9.40;;;6.07;;
